Time;durP1;ratioP1;P1;durP2;ratioP2;P2;SDS_P1;SDS_P2;PMS_P1;PMS_P2;Temp;Humidity;BMP_temperature;BMP_pressure;BME280_temperature;BME280_humidity;BME280_pressure;Samples;Min_cycle;Max_cycle;Signal;HPM_P1;HPM_P2
2022/04/20 00:01:22;;;;;;;;;23.25;19.75;;;;;15.61;47.36;100795.34;5059060;28;46086;-65
2022/04/20 00:03:47;;;;;;;;;18.00;17.00;;;;;15.57;47.21;100797.31;5059786;28;45326;-65
2022/04/20 00:06:13;;;;;;;;;22.75;21.00;;;;;15.56;47.18;100793.75;5059741;28;45381;-65
2022/04/20 00:08:38;;;;;;;;;23.75;22.00;;;;;15.57;47.36;100795.50;5059530;28;45414;-65
2022/04/20 00:11:04;;;;;;;;;22.00;22.00;;;;;15.54;47.33;100792.09;5057464;28;46165;-65
2022/04/20 00:13:29;;;;;;;;;21.00;21.00;;;;;15.55;47.34;100792.03;5057183;28;45606;-65
2022/04/20 00:15:54;;;;;;;;;20.25;20.25;;;;;15.55;47.44;100793.81;5050352;28;45279;-65
2022/04/20 00:18:20;;;;;;;;;20.75;18.75;;;;;15.52;47.45;100791.31;5059295;28;45418;-65
2022/04/20 00:20:45;;;;;;;;;30.50;26.50;;;;;15.46;47.70;100789.81;5056442;28;45443;-65
2022/04/20 00:23:10;;;;;;;;;24.00;23.00;;;;;15.43;47.53;100784.56;5058800;28;45264;-65
2022/04/20 00:25:36;;;;;;;;;21.25;20.50;;;;;15.41;47.58;100788.31;5059656;28;45239;-65
2022/04/20 00:28:01;;;;;;;;;26.00;25.75;;;;;15.36;47.64;100786.72;5059072;28;45394;-65
2022/04/20 00:30:26;;;;;;;;;30.50;25.50;;;;;15.41;47.93;100783.78;5058549;28;45149;-65
2022/04/20 00:32:52;;;;;;;;;23.00;22.00;;;;;15.38;48.04;100786.63;5058382;28;45314;-65
2022/04/20 00:35:17;;;;;;;;;22.75;22.75;;;;;15.38;47.85;100789.31;5071682;28;45336;-65
2022/04/20 00:37:43;;;;;;;;;23.75;22.25;;;;;15.37;47.88;100785.78;5053502;28;45549;-65
2022/04/20 00:40:10;;;;;;;;;24.50;22.00;;;;;15.36;47.89;100791.22;5069642;28;45211;-65
2022/04/20 00:42:39;;;;;;;;;26.50;25.75;;;;;15.34;48.20;100794.00;5057265;27;45300;-65
2022/04/20 00:45:05;;;;;;;;;27.75;26.00;;;;;15.22;48.22;100767.75;5059273;28;45448;-65
2022/04/20 00:47:35;;;;;;;;;27.25;26.25;;;;;15.30;48.36;100786.16;5061580;28;45158;-65
2022/04/20 00:50:01;;;;;;;;;27.75;25.00;;;;;15.26;48.28;100784.59;5056707;28;46255;-65
2022/04/20 00:52:26;;;;;;;;;28.50;26.50;;;;;15.21;48.36;100778.59;5061656;28;45374;-65
2022/04/20 00:54:52;;;;;;;;;29.75;27.75;;;;;15.22;48.53;100772.22;5062837;28;45310;-65
2022/04/20 00:57:17;;;;;;;;;29.25;27.00;;;;;15.22;48.51;100777.63;5062476;28;45287;-65
2022/04/20 00:59:43;;;;;;;;;33.00;28.00;;;;;15.18;48.29;100771.53;5062597;28;45391;-65
2022/04/20 01:02:09;;;;;;;;;28.50;28.50;;;;;15.18;48.43;100771.53;5052870;28;45331;-65
2022/04/20 01:04:34;;;;;;;;;29.00;24.75;;;;;15.12;48.57;100755.72;5051297;28;45290;-65
2022/04/20 01:07:09;;;;;;;;;27.00;26.00;;;;;15.20;48.31;100769.63;5062350;28;45286;-65
2022/04/20 01:09:35;;;;;;;;;30.50;28.75;;;;;15.16;48.76;100766.22;5062191;28;45446;-65
2022/04/20 01:12:00;;;;;;;;;31.25;28.50;;;;;15.14;48.78;100768.13;5059902;28;48492;-65
2022/04/20 01:14:26;;;;;;;;;27.50;27.25;;;;;15.11;48.66;100768.28;5062554;28;45438;-65
2022/04/20 01:16:51;;;;;;;;;32.25;29.25;;;;;15.09;48.68;100761.25;5062091;28;45216;-65
2022/04/20 01:19:16;;;;;;;;;34.50;32.25;;;;;15.06;48.75;100759.59;5062266;28;45302;-65
2022/04/20 01:21:41;;;;;;;;;28.25;27.50;;;;;15.08;48.86;100757.69;5059936;28;45319;-65
2022/04/20 01:24:07;;;;;;;;;31.25;30.25;;;;;15.05;48.95;100757.88;5062594;28;45253;-65
2022/04/20 01:26:33;;;;;;;;;31.25;30.00;;;;;15.09;49.11;100764.81;5057457;28;45161;-65
2022/04/20 01:29:02;;;;;;;;;31.00;29.25;;;;;15.08;48.97;100768.44;5062289;28;45357;-65
2022/04/20 01:31:29;;;;;;;;;31.25;30.50;;;;;15.04;49.11;100750.72;5060944;28;45345;-65
2022/04/20 01:33:54;;;;;;;;;32.00;30.00;;;;;15.06;48.77;100759.59;5062094;28;45571;-65
2022/04/20 01:36:20;;;;;;;;;30.25;29.00;;;;;15.03;48.67;100754.34;5061469;28;45208;-65
2022/04/20 01:38:45;;;;;;;;;38.25;31.75;;;;;15.01;49.10;100750.88;5062054;28;45291;-65
2022/04/20 01:41:10;;;;;;;;;32.75;31.25;;;;;15.01;49.15;100758.94;5059722;28;45552;-64
2022/04/20 01:43:36;;;;;;;;;32.00;30.00;;;;;15.01;49.15;100761.63;5061939;28;45295;-65
2022/04/20 01:46:01;;;;;;;;;35.25;32.25;;;;;14.97;49.32;100760.06;5061714;28;45215;-65
2022/04/20 01:48:26;;;;;;;;;35.50;32.75;;;;;15.00;49.16;100770.63;5061765;28;45437;-65
2022/04/20 01:53:36;;;;;;;;;37.00;33.25;;;;;14.95;49.33;100759.25;5061846;28;45294;-65
2022/04/20 01:56:03;;;;;;;;;37.00;33.25;;;;;14.95;49.25;100764.63;5061347;28;45339;-65
2022/04/20 01:58:28;;;;;;;;;41.00;34.00;;;;;14.94;49.40;100774.50;5060402;28;46067;-64
2022/04/20 02:00:54;;;;;;;;;39.75;33.25;;;;;14.90;49.09;100769.38;5060722;28;45402;-65
2022/04/20 02:03:19;;;;;;;;;35.75;33.25;;;;;14.89;49.13;100768.50;5061850;28;45345;-65
2022/04/20 02:05:44;;;;;;;;;42.50;37.00;;;;;14.89;49.38;100762.25;5061148;28;45330;-65
2022/04/20 02:08:10;;;;;;;;;42.50;34.50;;;;;14.85;49.47;100756.19;5056710;28;47142;-65
2022/04/20 02:10:36;;;;;;;;;44.50;36.75;;;;;14.85;49.26;100763.34;5057869;28;45320;-65
2022/04/20 02:13:02;;;;;;;;;41.25;34.00;;;;;14.80;49.35;100764.47;5059257;28;45456;-65
2022/04/20 02:15:28;;;;;;;;;37.25;33.00;;;;;14.77;49.50;100759.22;5060337;28;45382;-65
2022/04/20 02:17:54;;;;;;;;;38.75;35.75;;;;;14.64;49.51;100734.78;5061259;28;46067;-65
2022/04/20 02:20:19;;;;;;;;;43.00;36.25;;;;;14.76;49.72;100754.78;5060132;28;45318;-65
2022/04/20 02:22:45;;;;;;;;;38.00;34.50;;;;;14.74;49.57;100748.63;5061376;28;45180;-65
2022/04/20 02:25:10;;;;;;;;;37.75;34.50;;;;;14.70;49.71;100741.69;5057530;28;45214;-65
2022/04/20 02:27:35;;;;;;;;;45.25;37.00;;;;;14.69;49.81;100737.25;5060938;28;46168;-65
2022/04/20 02:30:01;;;;;;;;;42.00;35.75;;;;;14.74;49.75;100734.34;5060325;28;45411;-65
2022/04/20 02:32:27;;;;;;;;;41.25;36.50;;;;;14.72;49.85;100734.41;5055152;28;45267;-65
2022/04/20 02:34:52;;;;;;;;;42.25;37.25;;;;;14.72;50.02;100733.56;5060625;28;45299;-65
2022/04/20 02:37:17;;;;;;;;;41.25;36.75;;;;;14.69;49.69;100726.50;5061048;28;45295;-65
2022/04/20 02:39:44;;;;;;;;;43.50;36.75;;;;;14.67;49.91;100724.81;5060144;28;45325;-65
2022/04/20 02:42:10;;;;;;;;;48.00;38.25;;;;;14.66;49.95;100726.66;5059948;28;45373;-65
2022/04/20 02:44:36;;;;;;;;;40.75;36.25;;;;;14.66;50.05;100717.72;5060695;28;46165;-65
2022/04/20 02:47:02;;;;;;;;;40.75;35.75;;;;;14.64;50.03;100717.81;5060858;28;45432;-65
2022/04/20 02:49:28;;;;;;;;;48.25;40.25;;;;;14.63;50.06;100716.06;5055712;28;45316;-65
2022/04/20 02:51:53;;;;;;;;;51.25;41.25;;;;;14.59;50.23;100717.16;5050388;28;45347;-65
2022/04/20 02:54:18;;;;;;;;;46.50;37.50;;;;;14.51;50.35;100706.75;5060648;28;45400;-65
2022/04/20 02:56:43;;;;;;;;;50.00;40.25;;;;;14.49;50.35;100722.09;5060525;28;45370;-65
2022/04/20 02:59:09;;;;;;;;;47.75;39.75;;;;;14.48;50.55;100716.78;5059231;28;45366;-65
2022/04/20 03:01:34;;;;;;;;;47.50;39.50;;;;;14.43;50.37;100708.94;5055011;28;45851;-65
2022/04/20 03:04:00;;;;;;;;;50.50;39.00;;;;;14.40;50.54;100707.28;5060411;28;45295;-65
2022/04/20 03:06:29;;;;;;;;;45.50;39.25;;;;;14.40;50.44;100696.56;5060096;28;46114;-65
2022/04/20 03:08:54;;;;;;;;;50.25;39.50;;;;;14.36;50.57;100691.41;5060180;28;45345;-65
2022/04/20 03:11:20;;;;;;;;;45.75;38.00;;;;;14.38;50.54;100697.56;5058369;28;45319;-65
2022/04/20 03:13:46;;;;;;;;;50.50;42.00;;;;;14.37;50.73;100698.53;5060311;28;45359;-65
2022/04/20 03:16:12;;;;;;;;;45.75;37.50;;;;;14.38;50.38;100695.75;5059175;28;46358;-65
2022/04/20 03:18:37;;;;;;;;;45.75;39.75;;;;;14.40;50.74;100699.25;5060309;28;45283;-65
2022/04/20 03:21:02;;;;;;;;;48.75;40.75;;;;;14.35;50.54;100690.53;5059697;28;45418;-65
2022/04/20 03:23:29;;;;;;;;;49.25;40.00;;;;;14.41;50.40;100703.66;5049344;28;45255;-65
2022/04/20 03:25:54;;;;;;;;;50.50;40.25;;;;;14.40;50.38;100707.28;5056260;28;45530;-65
2022/04/20 03:28:20;;;;;;;;;50.75;40.75;;;;;14.34;50.77;100704.91;5060235;28;45343;-65
2022/04/20 03:30:45;;;;;;;;;50.50;41.00;;;;;14.33;50.99;100710.34;5059550;28;45425;-65
2022/04/20 03:33:11;;;;;;;;;49.50;41.00;;;;;14.33;50.82;100704.97;5057726;28;45469;-65
2022/04/20 03:35:38;;;;;;;;;53.00;43.75;;;;;14.33;50.74;100713.88;5059611;28;46485;-65
2022/04/20 03:38:09;;;;;;;;;48.00;40.00;;;;;14.32;50.20;100727.41;5065558;28;45267;-65
2022/04/20 03:40:35;;;;;;;;;51.50;43.00;;;;;14.33;51.02;100729.13;5057875;28;45337;-65
2022/04/20 03:43:04;;;;;;;;;46.75;38.50;;;;;14.35;50.77;100724.56;5051417;28;45607;-65
2022/04/20 03:45:30;;;;;;;;;50.50;43.00;;;;;14.34;50.81;100720.16;5074771;28;47831;-64
2022/04/20 03:47:56;;;;;;;;;50.00;41.75;;;;;14.35;51.00;100720.06;5059835;28;45373;-64
2022/04/20 03:50:22;;;;;;;;;51.00;41.50;;;;;14.33;50.82;100724.63;5070539;27;45433;-64
2022/04/20 03:52:48;;;;;;;;;44.25;37.75;;;;;14.32;50.90;100730.97;5071622;28;45476;-65
2022/04/20 03:55:14;;;;;;;;;45.75;39.50;;;;;14.30;51.09;100738.22;5059817;28;46714;-64
2022/04/20 03:57:40;;;;;;;;;51.25;40.75;;;;;14.32;51.09;100744.38;5059069;28;45660;-64
2022/04/20 04:00:07;;;;;;;;;51.00;41.50;;;;;14.32;51.20;100739.00;5059765;28;45465;-64
2022/04/20 04:02:32;;;;;;;;;55.00;45.25;;;;;14.31;50.74;100736.41;5056626;28;45338;-65
2022/04/20 04:04:57;;;;;;;;;49.50;41.25;;;;;14.30;50.93;100727.50;5062526;28;45413;-65
2022/04/20 04:07:23;;;;;;;;;55.00;45.00;;;;;14.31;51.02;100734.56;5058960;28;45305;-65
2022/04/20 04:09:48;;;;;;;;;48.50;41.25;;;;;14.30;51.07;100732.84;5059736;28;45444;-65
2022/04/20 04:12:14;;;;;;;;;51.00;42.25;;;;;14.23;50.98;100728.69;5058730;28;45263;-65
2022/04/20 04:14:40;;;;;;;;;50.50;40.25;;;;;14.19;50.83;100729.81;5053609;28;45496;-65
2022/04/20 04:17:06;;;;;;;;;59.50;46.00;;;;;14.18;50.95;100723.59;5056421;28;45417;-65
2022/04/20 04:19:33;;;;;;;;;50.75;42.50;;;;;14.19;51.00;100719.06;5058586;28;45325;-66
2022/04/20 04:22:00;;;;;;;;;52.00;42.75;;;;;14.21;50.91;100727.91;5060615;28;45411;-65
2022/04/20 04:24:34;;;;;;;;;54.00;45.75;;;;;14.15;50.90;100729.09;5062773;28;46250;-65
2022/04/20 04:27:01;;;;;;;;;51.75;43.25;;;;;14.18;51.04;100737.00;5062858;28;45441;-65
2022/04/20 04:29:27;;;;;;;;;53.75;44.75;;;;;14.14;51.08;100721.97;5063144;28;45246;-65
2022/04/20 04:31:53;;;;;;;;;50.50;41.25;;;;;14.20;51.17;100732.41;5061014;28;45490;-65
2022/04/20 04:34:18;;;;;;;;;51.25;42.25;;;;;14.18;51.10;100720.91;5061492;28;45284;-65
2022/04/20 04:36:44;;;;;;;;;54.50;43.75;;;;;14.22;50.92;100727.84;5062699;28;45267;-65
2022/04/20 04:39:09;;;;;;;;;54.75;45.75;;;;;14.24;50.99;100733.16;5062955;28;45434;-65
2022/04/20 04:41:35;;;;;;;;;53.75;44.50;;;;;14.18;51.15;100726.25;5062677;28;45360;-64
2022/04/20 04:44:00;;;;;;;;;56.50;45.50;;;;;14.21;51.12;100734.16;5059611;28;45445;-65
2022/04/20 04:49:09;;;;;;;;;52.00;42.50;;;;;14.17;51.21;100734.38;5062440;28;45328;-65
2022/04/20 04:51:35;;;;;;;;;55.00;44.50;;;;;14.19;51.29;100740.56;5062457;28;45374;-65
2022/04/20 04:54:00;;;;;;;;;54.00;42.25;;;;;14.14;51.51;100735.38;5060392;28;46200;-65
2022/04/20 04:56:25;;;;;;;;;52.75;43.50;;;;;14.19;50.98;100751.28;5061864;28;45434;-65
2022/04/20 04:58:51;;;;;;;;;52.00;42.00;;;;;14.20;51.14;100758.38;5073447;28;45376;-65
2022/04/20 05:01:16;;;;;;;;;51.00;43.00;;;;;14.20;51.01;100748.53;5062276;28;45423;-65
2022/04/20 05:03:41;;;;;;;;;51.75;41.75;;;;;14.15;51.17;100738.94;5060281;28;46349;-65
2022/04/20 05:06:07;;;;;;;;;60.00;45.75;;;;;14.18;51.02;100745.06;5062122;28;45244;-65
2022/04/20 05:08:32;;;;;;;;;53.00;44.00;;;;;14.18;51.29;100734.31;5062407;28;45366;-65
2022/04/20 05:10:57;;;;;;;;;47.50;37.00;;;;;14.19;51.17;100738.72;5060893;28;45325;-65
2022/04/20 05:13:23;;;;;;;;;52.25;42.75;;;;;14.14;51.30;100727.34;5056080;28;46007;-64
2022/04/20 05:15:48;;;;;;;;;52.50;43.25;;;;;14.18;51.07;100731.63;5054149;28;45463;-65
2022/04/20 05:18:13;;;;;;;;;55.75;45.25;;;;;14.18;51.02;100730.75;5059872;28;45389;-65
2022/04/20 05:20:39;;;;;;;;;48.50;41.50;;;;;14.23;51.00;100742.13;5061606;28;45417;-65
2022/04/20 05:23:08;;;;;;;;;50.75;42.50;;;;;14.21;51.16;100733.28;5061302;28;46155;-65
2022/04/20 05:25:33;;;;;;;;;52.50;44.00;;;;;14.20;51.03;100732.41;5060861;28;45268;-65
2022/04/20 05:27:59;;;;;;;;;52.75;43.50;;;;;14.20;51.62;100737.78;5061149;28;45137;-65
2022/04/20 05:30:24;;;;;;;;;54.00;44.25;;;;;14.19;51.30;100741.41;5061539;28;45948;-65
2022/04/20 05:32:50;;;;;;;;;55.75;45.00;;;;;14.22;51.20;100741.25;5058634;28;45611;-65
2022/04/20 05:35:15;;;;;;;;;59.50;44.25;;;;;14.19;50.94;100745.91;5053820;28;45350;-65
2022/04/20 05:43:08;;;;;;;;;56.50;45.75;;;;;14.21;51.01;100746.72;5053917;28;45362;-65
2022/04/20 05:45:35;;;;;;;;;58.25;47.00;;;;;14.22;50.90;100753.81;5059689;28;45527;-64
2022/04/20 05:48:01;;;;;;;;;54.50;45.50;;;;;14.20;51.17;100753.91;5063147;28;45508;-63
2022/04/20 05:50:26;;;;;;;;;56.75;44.00;;;;;14.19;50.93;100756.66;5060498;28;45507;-65
2022/04/20 05:52:52;;;;;;;;;55.50;45.00;;;;;14.24;51.28;100758.16;5059791;28;45968;-65
2022/04/20 05:55:17;;;;;;;;;56.00;44.75;;;;;14.21;51.29;100747.56;5060551;28;45390;-67
2022/04/20 05:57:47;;;;;;;;;55.00;45.00;;;;;14.21;51.03;100746.72;5054207;28;45585;-68
2022/04/20 06:00:13;;;;;;;;;56.25;46.25;;;;;14.24;51.00;100746.56;5059591;28;45368;-68
2022/04/20 06:02:38;;;;;;;;;54.25;44.50;;;;;14.25;51.31;100746.50;5057342;28;45536;-68
2022/04/20 06:05:04;;;;;;;;;59.00;46.00;;;;;14.25;51.01;100748.31;5043387;28;45365;-68
2022/04/20 06:10:52;;;;;;;;;55.25;45.00;;;;;14.28;51.05;100745.47;5061056;28;45336;-69
2022/04/20 06:13:17;;;;;;;;;56.75;46.00;;;;;14.26;51.12;100742.00;5061664;28;46569;-69
2022/04/20 06:15:42;;;;;;;;;55.25;45.00;;;;;14.26;50.62;100736.63;5057877;28;45256;-69
2022/04/20 06:18:08;;;;;;;;;54.75;44.75;;;;;14.30;50.68;100748.06;5061353;28;45344;-69
2022/04/20 06:20:34;;;;;;;;;54.50;45.50;;;;;14.30;50.67;100751.66;5059807;28;45514;-69
2022/04/20 06:22:59;;;;;;;;;58.75;47.75;;;;;14.29;50.46;100732.94;5057009;28;45661;-70
2022/04/20 06:25:24;;;;;;;;;55.25;44.75;;;;;14.26;50.56;100745.53;5050998;28;45371;-69
2022/04/20 06:27:50;;;;;;;;;51.25;43.25;;;;;14.31;50.30;100753.38;5059556;28;45379;-69
2022/04/20 06:30:15;;;;;;;;;55.25;46.00;;;;;14.27;50.48;100752.66;5060917;28;45445;-70
2022/04/20 06:32:41;;;;;;;;;56.00;46.00;;;;;14.22;50.16;100745.78;5055070;28;46266;-68
2022/04/20 06:35:07;;;;;;;;;56.25;45.75;;;;;14.20;50.42;100743.16;5050718;28;45557;-69
2022/04/20 06:37:32;;;;;;;;;54.75;44.75;;;;;14.25;50.23;100748.31;5045794;28;46082;-69
2022/04/20 06:39:57;;;;;;;;;52.75;45.75;;;;;14.30;50.14;100745.38;5055348;28;46830;-68
2022/04/20 06:42:23;;;;;;;;;53.50;45.00;;;;;14.26;50.42;100752.72;5049002;28;45430;-69
2022/04/20 06:44:49;;;;;;;;;49.75;41.25;;;;;14.13;50.28;100733.63;5072596;28;45839;-69
2022/04/20 06:47:14;;;;;;;;;54.00;45.00;;;;;14.26;50.46;100750.03;5059676;28;45485;-69
2022/04/20 06:49:41;;;;;;;;;56.00;46.25;;;;;14.29;50.18;100757.94;5058079;28;45194;-66
2022/04/20 07:00:39;;;;;;;;;52.25;42.00;;;;;14.32;50.21;100754.28;5047581;28;45458;-66
2022/04/20 07:03:06;;;;;;;;;53.00;44.00;;;;;14.36;50.14;100753.16;5051196;28;46995;-64
2022/04/20 07:05:32;;;;;;;;;50.00;42.50;;;;;14.39;49.97;100748.50;5057244;28;45780;-65
2022/04/20 07:07:58;;;;;;;;;54.75;44.00;;;;;14.43;49.91;100755.50;5050009;28;45331;-65
2022/04/20 07:10:23;;;;;;;;;54.25;43.00;;;;;14.45;49.97;100758.97;5063860;28;45582;-68
2022/04/20 07:12:50;;;;;;;;;58.25;47.75;;;;;14.43;49.71;100752.81;5056851;28;46331;-66
2022/04/20 07:15:15;;;;;;;;;50.50;42.25;;;;;14.44;49.75;100751.84;5049764;28;45351;-66
2022/04/20 07:17:41;;;;;;;;;54.00;43.00;;;;;14.45;49.96;100758.97;5060451;28;45310;-66
2022/04/20 07:20:07;;;;;;;;;52.00;44.00;;;;;14.46;49.68;100755.31;5072637;27;45929;-66
2022/04/20 07:22:33;;;;;;;;;53.25;43.25;;;;;14.42;49.54;100752.88;5059308;28;45497;-66
2022/04/20 07:24:58;;;;;;;;;54.75;43.75;;;;;14.43;49.62;100752.81;5056271;28;45358;-66
2022/04/20 07:27:24;;;;;;;;;50.75;42.50;;;;;14.45;49.83;100755.41;5059450;28;45323;-66
2022/04/20 07:29:49;;;;;;;;;51.75;42.75;;;;;14.42;49.61;100752.88;5054856;28;45644;-66
2022/04/20 07:32:14;;;;;;;;;52.50;42.00;;;;;14.46;49.42;100765.19;5048106;28;45581;-66
2022/04/20 07:34:39;;;;;;;;;53.75;42.75;;;;;14.46;49.54;100763.38;5053538;28;45403;-66
2022/04/20 07:37:05;;;;;;;;;49.75;40.00;;;;;14.54;49.73;100772.91;5058067;28;45521;-66
2022/04/20 07:39:30;;;;;;;;;24.75;20.50;;;;;14.49;49.21;100761.50;5059031;28;45404;-66
2022/04/20 07:41:55;;;;;;;;;45.50;37.25;;;;;14.38;48.56;100752.16;5058039;28;45306;-65
2022/04/20 07:44:21;;;;;;;;;43.50;37.00;;;;;14.44;48.53;100762.59;5049273;28;45315;-65
2022/04/20 07:46:46;;;;;;;;;48.00;39.25;;;;;14.38;48.70;100762.91;5061115;28;45421;-65
2022/04/20 07:51:56;;;;;;;;;42.50;36.00;;;;;14.38;48.57;100770.06;5059486;28;45935;-64
2022/04/20 07:54:22;;;;;;;;;38.75;35.75;;;;;14.37;48.64;100762.97;5059617;28;45196;-64
2022/04/20 07:56:47;;;;;;;;;41.50;37.00;;;;;14.38;48.55;100762.00;5058813;28;45371;-64
2022/04/20 07:59:12;;;;;;;;;39.25;34.25;;;;;14.40;48.49;100765.47;5059575;28;45248;-65
2022/04/20 08:01:38;;;;;;;;;44.75;38.00;;;;;14.51;48.70;100773.03;5056268;28;45484;-65
2022/04/20 08:04:03;;;;;;;;;36.25;30.00;;;;;14.56;48.50;100754.88;5046181;28;46620;-65
2022/04/20 08:06:30;;;;;;;;;42.75;35.00;;;;;14.63;48.12;100759.03;5057427;27;45682;-68
2022/04/20 08:08:56;;;;;;;;;40.00;34.75;;;;;14.66;48.00;100758.88;5056801;28;45567;-64
2022/04/20 08:11:21;;;;;;;;;37.50;34.25;;;;;14.69;48.08;100756.06;5056243;28;45568;-65
2022/04/20 08:16:30;;;;;;;;;33.75;32.50;;;;;14.75;47.61;100761.13;5051188;28;45511;-67
2022/04/20 08:18:56;;;;;;;;;42.75;34.00;;;;;14.76;47.26;100762.00;5056832;28;46085;-67
2022/04/20 08:21:21;;;;;;;;;36.75;32.00;;;;;14.76;47.38;100759.31;5050442;28;46069;-68
2022/04/20 08:23:46;;;;;;;;;36.50;32.50;;;;;14.81;47.43;100754.56;5055657;28;46863;-66
2022/04/20 08:26:13;;;;;;;;;40.50;33.25;;;;;14.84;47.05;100756.25;5052176;28;45394;-67
2022/04/20 08:28:39;;;;;;;;;36.00;30.00;;;;;14.91;46.68;100763.06;5058445;28;45540;-67
2022/04/20 08:31:04;;;;;;;;;30.75;29.75;;;;;14.94;47.00;100757.53;5044388;28;46778;-67
2022/04/20 08:33:30;;;;;;;;;30.75;30.25;;;;;14.96;47.02;100761.84;5051917;28;45441;-67
2022/04/20 08:35:55;;;;;;;;;34.25;31.00;;;;;15.08;46.91;100759.50;5043622;28;45491;-67
2022/04/20 08:38:21;;;;;;;;;33.25;29.75;;;;;15.09;46.54;100753.19;5047880;28;45587;-67
2022/04/20 08:40:47;;;;;;;;;35.50;30.75;;;;;15.12;46.30;100767.34;5055438;27;46392;-67
2022/04/20 08:43:12;;;;;;;;;31.50;30.25;;;;;15.16;46.68;100765.38;5056012;28;46713;-66
2022/04/20 08:45:40;;;;;;;;;34.75;32.00;;;;;15.24;46.68;100771.22;5057948;28;45426;-65
2022/04/20 08:48:06;;;;;;;;;28.50;27.50;;;;;15.32;46.44;100776.22;5053566;28;45532;-68
2022/04/20 08:50:32;;;;;;;;;32.25;29.50;;;;;15.37;46.77;100771.47;5055220;28;47022;-66
2022/04/20 08:52:58;;;;;;;;;30.50;30.25;;;;;15.37;46.08;100768.78;5056992;28;45437;-66
2022/04/20 08:55:24;;;;;;;;;31.25;31.00;;;;;15.42;45.82;100771.19;5057616;28;45224;-66
2022/04/20 08:57:52;;;;;;;;;30.50;29.25;;;;;15.48;46.10;100776.28;5050121;28;45348;-66
2022/04/20 09:00:26;;;;;;;;;29.25;28.50;;;;;15.52;45.78;100770.66;5051528;28;46192;-66
2022/04/20 09:02:56;;;;;;;;;29.00;26.25;;;;;15.53;45.57;100775.06;5047018;28;45311;-66
2022/04/20 09:05:22;;;;;;;;;23.00;23.00;;;;;15.56;45.38;100772.22;5058673;28;45410;-67
2022/04/20 09:07:48;;;;;;;;;33.00;30.25;;;;;15.61;45.50;100769.28;5061751;28;45415;-67
2022/04/20 09:10:13;;;;;;;;;27.25;24.50;;;;;15.65;45.40;100764.63;5061848;28;45366;-67
2022/04/20 09:12:43;;;;;;;;;29.25;28.00;;;;;15.76;45.61;100766.78;5061224;28;47028;-67
2022/04/20 09:15:10;;;;;;;;;29.25;27.50;;;;;15.82;45.14;100764.63;5049509;28;45299;-67
2022/04/20 09:17:42;;;;;;;;;30.25;23.75;;;;;15.86;45.64;100760.81;5059877;28;45526;-67
2022/04/20 09:20:09;;;;;;;;;30.25;25.00;;;;;15.90;44.94;100761.50;5059036;28;46536;-67
2022/04/20 09:22:35;;;;;;;;;31.50;29.00;;;;;15.91;44.84;100757.88;5061784;28;45319;-67
2022/04/20 09:25:06;;;;;;;;;29.75;27.50;;;;;15.95;44.87;100759.44;5055754;28;45769;-67
2022/04/20 09:27:37;;;;;;;;;27.75;26.75;;;;;15.98;44.85;100756.56;5073285;28;46102;-67
2022/04/20 09:30:08;;;;;;;;;30.50;26.50;;;;;16.02;44.85;100757.28;5049884;28;45370;-68
2022/04/20 09:32:35;;;;;;;;;34.50;28.75;;;;;16.05;44.77;100747.19;5058880;28;45359;-66
2022/04/20 09:35:06;;;;;;;;;29.25;27.25;;;;;16.08;44.14;100752.41;5047834;28;45474;-65
2022/04/20 09:37:32;;;;;;;;;24.75;22.50;;;;;16.07;44.24;100760.56;5060802;28;45163;-63
2022/04/20 09:39:58;;;;;;;;;28.00;25.25;;;;;16.08;44.34;100744.34;5054108;28;48309;-73
2022/04/20 09:42:24;;;;;;;;;27.00;26.00;;;;;16.14;44.09;100748.53;5068000;28;45395;-72
2022/04/20 09:45:02;;;;;;;;;25.75;23.75;;;;;16.19;44.48;100743.75;5061345;28;45393;-69
2022/04/20 09:50:34;;;;;;;;;22.50;21.75;;;;;16.38;44.04;100742.72;5050047;28;45746;-69
2022/04/20 09:53:06;;;;;;;;;25.00;24.75;;;;;16.40;44.47;100733.59;5060950;28;45383;-65
2022/04/20 09:55:36;;;;;;;;;27.75;26.50;;;;;16.47;44.10;100734.09;5061465;28;45411;-66
2022/04/20 09:58:12;;;;;;;;;21.00;20.00;;;;;16.53;43.61;100735.59;5077050;28;45250;-65
2022/04/20 10:00:51;;;;;;;;;22.50;21.50;;;;;16.56;43.30;100733.59;5059955;28;45394;-65
2022/04/20 10:03:25;;;;;;;;;24.50;22.75;;;;;16.62;43.88;100735.94;5042838;28;45747;-65
2022/04/20 10:05:51;;;;;;;;;29.75;26.50;;;;;16.71;43.70;100737.22;5055565;28;45363;-65
2022/04/20 10:08:17;;;;;;;;;24.75;23.25;;;;;16.78;43.85;100733.19;5061289;28;45838;-65
2022/04/20 10:10:43;;;;;;;;;27.50;24.25;;;;;16.78;43.56;100716.16;5064307;28;46363;-66
2022/04/20 10:13:10;;;;;;;;;28.00;24.00;;;;;16.89;43.62;100737.13;5061232;28;47502;-63
2022/04/20 10:18:24;;;;;;;;;25.00;23.75;;;;;16.96;43.92;100734.00;5060713;28;45310;-63
2022/04/20 10:20:54;;;;;;;;;21.75;21.50;;;;;17.04;43.85;100728.16;5056252;28;46203;-64
2022/04/20 10:23:21;;;;;;;;;23.75;20.25;;;;;17.06;43.27;100720.84;5061057;28;45318;-64
2022/04/20 10:25:49;;;;;;;;;24.75;22.00;;;;;17.13;43.46;100719.50;5061002;28;45374;-64
2022/04/20 10:28:33;;;;;;;;;25.50;24.00;;;;;17.20;43.47;100718.16;5055361;28;45820;-64
2022/04/20 10:31:12;;;;;;;;;24.25;22.00;;;;;17.18;43.35;100709.28;5051293;28;45342;-65
2022/04/20 10:33:41;;;;;;;;;24.50;22.25;;;;;17.21;44.01;100702.84;5053072;28;45369;-65
2022/04/20 10:36:12;;;;;;;;;23.50;22.75;;;;;17.28;43.68;100706.91;5060929;28;45422;-64
2022/04/20 10:38:38;;;;;;;;;20.50;19.50;;;;;17.34;43.91;100709.25;5058735;28;45341;-65
2022/04/20 10:41:08;;;;;;;;;21.75;21.50;;;;;17.47;43.45;100708.47;5060035;28;45455;-65
2022/04/20 10:43:35;;;;;;;;;19.50;17.75;;;;;17.54;43.42;100704.41;5060424;28;45310;-65
2022/04/20 10:46:05;;;;;;;;;21.25;18.75;;;;;17.60;43.66;100701.34;5060922;28;45301;-65
2022/04/20 10:49:02;;;;;;;;;22.25;20.25;;;;;17.66;43.42;100692.00;5047149;28;45235;-65
2022/04/20 10:51:32;;;;;;;;;22.00;18.75;;;;;17.74;43.82;100689.69;5060155;28;45270;-65
2022/04/20 10:54:27;;;;;;;;;15.75;15.50;;;;;17.83;43.54;100685.53;5059441;28;45644;-65
2022/04/20 10:57:07;;;;;;;;;15.75;14.25;;;;;17.89;43.33;100691.47;5049387;28;45346;-65
2022/04/20 10:59:33;;;;;;;;;15.75;14.75;;;;;17.87;42.67;100673.59;5060285;28;45146;-65
2022/04/20 11:02:02;;;;;;;;;14.50;13.25;;;;;17.94;43.16;100669.53;5053678;28;46849;-64
2022/04/20 11:04:31;;;;;;;;;13.00;12.50;;;;;18.02;43.17;100682.56;5057006;28;45614;-65
2022/04/20 11:07:12;;;;;;;;;10.50;10.50;;;;;18.11;42.65;100669.31;5061239;28;45486;-65
2022/04/20 11:09:45;;;;;;;;;12.00;11.00;;;;;18.18;41.95;100668.94;5057162;28;45374;-65
2022/04/20 11:21:02;;;;;;;;;11.75;9.50;;;;;18.36;41.01;100665.03;5053602;28;45248;-65
2022/04/20 11:23:49;;;;;;;;;10.25;8.25;;;;;18.43;41.18;100669.03;5058387;28;46397;-65
2022/04/20 11:26:23;;;;;;;;;9.25;9.00;;;;;18.47;40.75;100662.44;5055843;28;45247;-65
2022/04/20 11:28:49;;;;;;;;;9.00;9.00;;;;;18.52;41.17;100657.59;5045626;28;45399;-65
2022/04/20 11:31:16;;;;;;;;;6.75;6.75;;;;;18.55;40.18;100653.84;5057710;28;45546;-65
2022/04/20 11:33:41;;;;;;;;;4.00;4.00;;;;;18.60;39.94;100659.78;5053501;27;45735;-65
2022/04/20 11:36:10;;;;;;;;;8.75;6.50;;;;;18.63;39.86;100650.63;5057476;28;45513;-65
2022/04/20 11:38:41;;;;;;;;;4.75;4.75;;;;;18.71;39.49;100653.69;5057344;28;45323;-65
2022/04/20 11:41:07;;;;;;;;;5.75;5.75;;;;;18.72;38.04;100655.38;5059255;28;45463;-65
2022/04/20 11:43:34;;;;;;;;;2.75;2.75;;;;;18.80;38.32;100652.19;5051005;28;45289;-65
2022/04/20 11:46:00;;;;;;;;;4.75;3.00;;;;;18.81;38.22;100654.78;5049755;28;45300;-65
2022/04/20 11:48:25;;;;;;;;;5.00;5.00;;;;;18.86;38.05;100633.72;5046108;28;45439;-65
2022/04/20 11:51:00;;;;;;;;;3.50;3.00;;;;;18.90;37.23;100641.63;5059656;28;45466;-65